sensor_id;sensor_type;location;lat;lon;timestamp;pressure;altitude;pressure_sealevel;temperature;humidity
60375;BME280;70244;48.792;9.172;2024-03-08T05:15:48;97177.13;;;15.00;82.00
60375;BME280;70244;48.792;9.172;2024-03-08T05:18:17;97174.20;;;15.05;81.90
60375;BME280;70244;48.792;9.172;2024-03-08T05:21:17;97170.97;;;15.16;81.69
60375;BME280;70244;48.792;9.172;2024-03-08T05:23:46;97174.88;;;15.24;81.41
60375;BME280;70244;48.792;9.172;2024-03-08T05:26:17;97176.33;;;15.25;81.35
60375;BME280;70244;48.792;9.172;2024-03-08T05:28:47;97171.27;;;15.36;81.05
60375;BME280;70244;48.792;9.172;2024-03-08T05:31:19;97166.62;;;15.36;81.07
60375;BME280;70244;48.792;9.172;2024-03-08T05:33:49;97171.34;;;15.29;81.33
60375;BME280;70244;48.792;9.172;2024-03-08T05:36:19;97169.52;;;15.19;81.59
60375;BME280;70244;48.792;9.172;2024-03-08T05:38:50;97169.53;;;15.28;81.30
60375;BME280;70244;48.792;9.172;2024-03-08T05:41:20;97167.16;;;15.33;81.38
60375;BME280;70244;48.792;9.172;2024-03-08T05:43:51;97168.10;;;15.33;81.98
60375;BME280;70244;48.792;9.172;2024-03-08T05:46:21;97167.94;;;15.21;82.40
60375;BME280;70244;48.792;9.172;2024-03-08T05:48:52;97164.66;;;15.48;81.87
60375;BME280;70244;48.792;9.172;2024-03-08T05:51:23;97162.86;;;15.64;81.60
60375;BME280;70244;48.792;9.172;2024-03-08T05:53:53;97158.23;;;15.84;81.15
60375;BME280;70244;48.792;9.172;2024-03-08T05:56:24;97160.70;;;15.95;80.97
60375;BME280;70244;48.792;9.172;2024-03-08T05:58:54;97158.99;;;16.11;80.51
60375;BME280;70244;48.792;9.172;2024-03-08T06:01:25;97160.59;;;16.21;80.31
60375;BME280;70244;48.792;9.172;2024-03-08T06:03:56;97161.28;;;16.34;79.99
60375;BME280;70244;48.792;9.172;2024-03-08T06:06:26;97162.29;;;16.43;79.71
60375;BME280;70244;48.792;9.172;2024-03-08T06:08:56;97162.18;;;16.39;79.83
60375;BME280;70244;48.792;9.172;2024-03-08T06:11:27;97160.78;;;16.34;80.41
60375;BME280;70244;48.792;9.172;2024-03-08T06:13:57;97160.83;;;16.53;79.87
60375;BME280;70244;48.792;9.172;2024-03-08T06:16:28;97156.06;;;16.61;79.76
60375;BME280;70244;48.792;9.172;2024-03-08T06:18:58;97159.04;;;16.73;78.70
60375;BME280;70244;48.792;9.172;2024-03-08T06:21:29;97160.87;;;16.84;77.63
60375;BME280;70244;48.792;9.172;2024-03-08T06:23:59;97159.21;;;16.93;76.93
60375;BME280;70244;48.792;9.172;2024-03-08T06:26:30;97157.38;;;16.91;77.36
60375;BME280;70244;48.792;9.172;2024-03-08T06:29:00;97163.97;;;16.94;77.51
60375;BME280;70244;48.792;9.172;2024-03-08T06:31:31;97165.17;;;16.90;77.93
60375;BME280;70244;48.792;9.172;2024-03-08T06:34:01;97170.89;;;16.79;78.46
60375;BME280;70244;48.792;9.172;2024-03-08T06:36:32;97170.89;;;16.93;78.21
60375;BME280;70244;48.792;9.172;2024-03-08T06:39:02;97168.64;;;16.87;78.56
60375;BME280;70244;48.792;9.172;2024-03-08T06:41:33;97166.00;;;16.85;79.03
60375;BME280;70244;48.792;9.172;2024-03-08T06:44:03;97162.45;;;16.80;79.37
60375;BME280;70244;48.792;9.172;2024-03-08T06:46:33;97164.85;;;16.82;79.03
60375;BME280;70244;48.792;9.172;2024-03-08T06:49:03;97164.26;;;16.75;79.29
60375;BME280;70244;48.792;9.172;2024-03-08T06:51:34;97165.57;;;16.72;79.27
60375;BME280;70244;48.792;9.172;2024-03-08T06:54:05;97164.71;;;16.74;79.26
60375;BME280;70244;48.792;9.172;2024-03-08T06:56:35;97162.65;;;16.79;79.06
60375;BME280;70244;48.792;9.172;2024-03-08T06:59:06;97166.23;;;16.70;79.45
60375;BME280;70244;48.792;9.172;2024-03-08T07:01:37;97161.72;;;16.71;79.44
60375;BME280;70244;48.792;9.172;2024-03-08T07:04:07;97160.12;;;16.64;79.72
60375;BME280;70244;48.792;9.172;2024-03-08T07:06:38;97161.34;;;16.52;79.92
60375;BME280;70244;48.792;9.172;2024-03-08T07:09:08;97160.95;;;16.54;79.78
60375;BME280;70244;48.792;9.172;2024-03-08T07:11:39;97163.04;;;16.49;79.92
60375;BME280;70244;48.792;9.172;2024-03-08T07:14:10;97159.74;;;16.46;79.75
60375;BME280;70244;48.792;9.172;2024-03-08T07:16:40;97157.52;;;16.45;79.68
60375;BME280;70244;48.792;9.172;2024-03-08T07:19:11;97153.47;;;16.40;79.79
60375;BME280;70244;48.792;9.172;2024-03-08T07:21:42;97150.25;;;16.45;79.39
60375;BME280;70244;48.792;9.172;2024-03-08T07:24:12;97152.70;;;16.40;79.60
60375;BME280;70244;48.792;9.172;2024-03-08T07:26:43;97149.85;;;16.38;79.65
60375;BME280;70244;48.792;9.172;2024-03-08T07:29:13;97150.52;;;16.32;79.82
60375;BME280;70244;48.792;9.172;2024-03-08T07:31:44;97145.47;;;16.25;80.05
60375;BME280;70244;48.792;9.172;2024-03-08T07:34:14;97148.92;;;16.26;79.95
60375;BME280;70244;48.792;9.172;2024-03-08T07:36:44;97146.41;;;16.19;80.21
60375;BME280;70244;48.792;9.172;2024-03-08T07:39:15;97143.45;;;16.19;80.09
60375;BME280;70244;48.792;9.172;2024-03-08T07:41:46;97146.06;;;16.15;80.11
60375;BME280;70244;48.792;9.172;2024-03-08T07:44:16;97144.45;;;16.12;80.13
60375;BME280;70244;48.792;9.172;2024-03-08T07:46:46;97140.66;;;16.10;80.05
60375;BME280;70244;48.792;9.172;2024-03-08T07:49:17;97141.06;;;16.11;80.04
60375;BME280;70244;48.792;9.172;2024-03-08T07:51:48;97135.03;;;15.98;80.38
60375;BME280;70244;48.792;9.172;2024-03-08T07:54:18;97134.68;;;16.04;80.13
60375;BME280;70244;48.792;9.172;2024-03-08T07:56:49;97139.80;;;16.12;79.76
60375;BME280;70244;48.792;9.172;2024-03-08T07:59:20;97134.47;;;16.04;80.02
60375;BME280;70244;48.792;9.172;2024-03-08T08:01:50;97131.57;;;16.02;80.11
60375;BME280;70244;48.792;9.172;2024-03-08T08:04:21;97132.70;;;16.02;80.12
60375;BME280;70244;48.792;9.172;2024-03-08T08:06:51;97132.96;;;16.01;80.03
60375;BME280;70244;48.792;9.172;2024-03-08T08:09:22;97128.76;;;15.88;80.28
60375;BME280;70244;48.792;9.172;2024-03-08T08:11:52;97128.37;;;15.92;80.11
60375;BME280;70244;48.792;9.172;2024-03-08T08:14:23;97129.27;;;16.01;79.80
60375;BME280;70244;48.792;9.172;2024-03-08T08:16:53;97124.51;;;16.00;79.80
60375;BME280;70244;48.792;9.172;2024-03-08T08:19:24;97123.67;;;15.98;79.69
60375;BME280;70244;48.792;9.172;2024-03-08T08:21:54;97125.22;;;15.96;79.65
60375;BME280;70244;48.792;9.172;2024-03-08T08:24:25;97119.21;;;15.87;79.96
60375;BME280;70244;48.792;9.172;2024-03-08T08:26:55;97118.04;;;15.97;79.58
60375;BME280;70244;48.792;9.172;2024-03-08T08:29:26;97114.90;;;15.86;79.82
60375;BME280;70244;48.792;9.172;2024-03-08T08:31:58;97117.08;;;15.92;79.61
60375;BME280;70244;48.792;9.172;2024-03-08T08:34:28;97112.46;;;15.94;79.54
60375;BME280;70244;48.792;9.172;2024-03-08T08:36:58;97110.88;;;15.85;79.76
60375;BME280;70244;48.792;9.172;2024-03-08T08:39:29;97107.94;;;15.85;79.76
60375;BME280;70244;48.792;9.172;2024-03-08T08:42:00;97102.21;;;15.78;79.93
60375;BME280;70244;48.792;9.172;2024-03-08T08:44:30;97103.48;;;15.80;79.77
60375;BME280;70244;48.792;9.172;2024-03-08T08:47:01;97103.37;;;15.76;79.88
60375;BME280;70244;48.792;9.172;2024-03-08T08:49:31;97103.84;;;15.77;79.79
60375;BME280;70244;48.792;9.172;2024-03-08T08:52:01;97104.23;;;15.87;79.47
60375;BME280;70244;48.792;9.172;2024-03-08T08:54:32;97100.33;;;15.80;79.58
60375;BME280;70244;48.792;9.172;2024-03-08T08:57:03;97102.88;;;15.79;79.58
60375;BME280;70244;48.792;9.172;2024-03-08T08:59:33;97103.50;;;15.89;79.31
60375;BME280;70244;48.792;9.172;2024-03-08T09:02:03;97101.92;;;15.85;79.36
60375;BME280;70244;48.792;9.172;2024-03-08T09:04:34;97102.61;;;15.86;79.30
60375;BME280;70244;48.792;9.172;2024-03-08T09:07:04;97100.19;;;15.75;79.59
60375;BME280;70244;48.792;9.172;2024-03-08T09:09:35;97095.44;;;15.69;79.73
60375;BME280;70244;48.792;9.172;2024-03-08T09:12:06;97092.64;;;15.60;79.97
60375;BME280;70244;48.792;9.172;2024-03-08T09:14:36;97095.60;;;15.58;80.06
60375;BME280;70244;48.792;9.172;2024-03-08T09:17:07;97090.22;;;15.58;79.97
60375;BME280;70244;48.792;9.172;2024-03-08T09:19:37;97092.03;;;15.56;80.07
60375;BME280;70244;48.792;9.172;2024-03-08T09:22:07;97088.94;;;15.44;80.48
60375;BME280;70244;48.792;9.172;2024-03-08T09:24:38;97084.76;;;15.53;80.10
60375;BME280;70244;48.792;9.172;2024-03-08T09:27:09;97083.33;;;15.58;79.93
60375;BME280;70244;48.792;9.172;2024-03-08T09:29:40;97085.27;;;15.71;79.50
60375;BME280;70244;48.792;9.172;2024-03-08T09:32:10;97080.63;;;15.63;79.72
60375;BME280;70244;48.792;9.172;2024-03-08T09:34:41;97076.27;;;15.63;79.72
60375;BME280;70244;48.792;9.172;2024-03-08T09:37:11;97077.87;;;15.71;79.44
60375;BME280;70244;48.792;9.172;2024-03-08T09:39:42;97074.79;;;15.64;79.59
60375;BME280;70244;48.792;9.172;2024-03-08T09:42:13;97071.54;;;15.61;79.65
60375;BME280;70244;48.792;9.172;2024-03-08T09:44:45;97074.09;;;15.71;79.47
60375;BME280;70244;48.792;9.172;2024-03-08T09:47:14;97072.00;;;15.66;79.47
60375;BME280;70244;48.792;9.172;2024-03-08T09:49:45;97071.78;;;15.85;78.83
60375;BME280;70244;48.792;9.172;2024-03-08T09:52:15;97068.23;;;15.82;78.91
60375;BME280;70244;48.792;9.172;2024-03-08T09:54:46;97067.95;;;15.85;78.74
60375;BME280;70244;48.792;9.172;2024-03-08T09:57:16;97068.82;;;15.72;79.16
60375;BME280;70244;48.792;9.172;2024-03-08T09:59:46;97065.98;;;15.78;78.94
60375;BME280;70244;48.792;9.172;2024-03-08T10:02:17;97059.03;;;15.78;78.95
60375;BME280;70244;48.792;9.172;2024-03-08T10:04:47;97057.47;;;15.80;78.87
60375;BME280;70244;48.792;9.172;2024-03-08T10:07:18;97057.62;;;15.72;79.11
60375;BME280;70244;48.792;9.172;2024-03-08T10:09:52;97056.25;;;15.78;78.89
60375;BME280;70244;48.792;9.172;2024-03-08T10:12:19;97053.13;;;15.75;78.93
60375;BME280;70244;48.792;9.172;2024-03-08T10:14:50;97052.59;;;15.79;78.76
60375;BME280;70244;48.792;9.172;2024-03-08T10:17:20;97048.55;;;15.78;78.75
60375;BME280;70244;48.792;9.172;2024-03-08T10:19:51;97044.56;;;15.68;79.06
60375;BME280;70244;48.792;9.172;2024-03-08T10:22:22;97040.97;;;15.78;78.88
60375;BME280;70244;48.792;9.172;2024-03-08T10:24:52;97044.46;;;15.76;78.85
60375;BME280;70244;48.792;9.172;2024-03-08T10:27:23;97037.47;;;15.72;78.96
60375;BME280;70244;48.792;9.172;2024-03-08T10:29:53;97035.44;;;15.77;78.88
60375;BME280;70244;48.792;9.172;2024-03-08T10:32:23;97033.40;;;15.67;79.10
60375;BME280;70244;48.792;9.172;2024-03-08T10:34:54;97029.89;;;15.67;79.00
60375;BME280;70244;48.792;9.172;2024-03-08T10:37:25;97026.34;;;15.69;78.97
60375;BME280;70244;48.792;9.172;2024-03-08T10:40:02;97030.46;;;15.68;79.01
60375;BME280;70244;48.792;9.172;2024-03-08T10:42:28;97025.53;;;15.72;78.90
60375;BME280;70244;48.792;9.172;2024-03-08T10:45:03;97018.32;;;15.78;78.65
60375;BME280;70244;48.792;9.172;2024-03-08T10:47:29;97017.38;;;15.81;78.43
60375;BME280;70244;48.792;9.172;2024-03-08T10:50:06;97014.48;;;15.79;78.38
60375;BME280;70244;48.792;9.172;2024-03-08T10:52:28;97016.33;;;15.65;78.83
60375;BME280;70244;48.792;9.172;2024-03-08T10:54:59;97019.71;;;15.62;78.88
60375;BME280;70244;48.792;9.172;2024-03-08T10:57:30;97022.22;;;15.58;78.82
60375;BME280;70244;48.792;9.172;2024-03-08T11:00:00;97020.09;;;15.58;78.79
60375;BME280;70244;48.792;9.172;2024-03-08T11:02:30;97020.49;;;15.58;78.73
60375;BME280;70244;48.792;9.172;2024-03-08T11:05:02;97018.99;;;15.62;78.65
60375;BME280;70244;48.792;9.172;2024-03-08T11:07:33;97016.38;;;15.68;78.46
60375;BME280;70244;48.792;9.172;2024-03-08T11:10:02;97007.87;;;15.64;78.51
60375;BME280;70244;48.792;9.172;2024-03-08T11:12:37;97004.98;;;15.70;78.32
60375;BME280;70244;48.792;9.172;2024-03-08T11:15:10;97004.81;;;15.70;78.34
60375;BME280;70244;48.792;9.172;2024-03-08T11:17:42;97004.29;;;15.77;78.12
60375;BME280;70244;48.792;9.172;2024-03-08T11:20:10;97002.47;;;15.68;78.33
60375;BME280;70244;48.792;9.172;2024-03-08T11:22:38;97003.32;;;15.70;78.29
60375;BME280;70244;48.792;9.172;2024-03-08T11:25:09;96997.52;;;15.74;78.13
60375;BME280;70244;48.792;9.172;2024-03-08T11:27:37;96996.36;;;15.71;78.31
60375;BME280;70244;48.792;9.172;2024-03-08T11:30:08;96993.93;;;15.73;78.28
60375;BME280;70244;48.792;9.172;2024-03-08T11:32:38;96992.08;;;15.74;78.17
60375;BME280;70244;48.792;9.172;2024-03-08T11:35:18;96992.99;;;15.72;78.20
60375;BME280;70244;48.792;9.172;2024-03-08T11:37:39;96986.68;;;16.06;75.79
60375;BME280;70244;48.792;9.172;2024-03-08T11:40:12;96992.31;;;16.09;75.82
60375;BME280;70244;48.792;9.172;2024-03-08T11:42:44;96986.00;;;15.98;74.93
60375;BME280;70244;48.792;9.172;2024-03-08T11:45:11;96977.01;;;16.03;73.35
60375;BME280;70244;48.792;9.172;2024-03-08T11:47:42;96972.21;;;15.93;73.40
60375;BME280;70244;48.792;9.172;2024-03-08T11:50:12;96968.17;;;15.83;72.20
60375;BME280;70244;48.792;9.172;2024-03-08T11:52:43;96963.99;;;15.69;72.14
60375;BME280;70244;48.792;9.172;2024-03-08T11:55:13;96963.29;;;15.66;72.76
60375;BME280;70244;48.792;9.172;2024-03-08T11:57:43;96953.24;;;15.73;72.22
60375;BME280;70244;48.792;9.172;2024-03-08T12:00:16;96948.06;;;15.70;73.24
60375;BME280;70244;48.792;9.172;2024-03-08T12:02:44;96938.27;;;15.93;72.43
60375;BME280;70244;48.792;9.172;2024-03-08T12:05:15;96936.56;;;15.78;73.53
60375;BME280;70244;48.792;9.172;2024-03-08T12:10:17;96931.47;;;15.81;74.11
60375;BME280;70244;48.792;9.172;2024-03-08T12:12:48;96927.19;;;15.84;74.12
60375;BME280;70244;48.792;9.172;2024-03-08T12:15:18;96922.73;;;16.09;73.61
60375;BME280;70244;48.792;9.172;2024-03-08T12:17:49;96922.44;;;15.95;74.23
60375;BME280;70244;48.792;9.172;2024-03-08T12:20:19;96906.75;;;16.07;73.71
60375;BME280;70244;48.792;9.172;2024-03-08T12:22:49;96904.32;;;16.05;73.99
60375;BME280;70244;48.792;9.172;2024-03-08T12:25:19;96902.28;;;16.28;73.64
60375;BME280;70244;48.792;9.172;2024-03-08T12:27:49;96900.76;;;16.42;73.77
60375;BME280;70244;48.792;9.172;2024-03-08T12:30:22;96900.36;;;16.56;74.12
60375;BME280;70244;48.792;9.172;2024-03-08T12:32:54;96901.17;;;16.71;74.01
60375;BME280;70244;48.792;9.172;2024-03-08T12:35:21;96897.45;;;16.74;74.14
60375;BME280;70244;48.792;9.172;2024-03-08T12:37:53;96893.37;;;16.92;74.38
60375;BME280;70244;48.792;9.172;2024-03-08T12:40:27;96889.65;;;17.01;77.73
60375;BME280;70244;48.792;9.172;2024-03-08T12:42:53;96886.79;;;17.08;76.88
60375;BME280;70244;48.792;9.172;2024-03-08T12:45:24;96885.11;;;17.31;77.20
60375;BME280;70244;48.792;9.172;2024-03-08T12:47:55;96876.34;;;17.30;77.20
60375;BME280;70244;48.792;9.172;2024-03-08T12:50:24;96880.08;;;17.31;77.20
60375;BME280;70244;48.792;9.172;2024-03-08T12:52:55;96872.87;;;17.36;76.21
60375;BME280;70244;48.792;9.172;2024-03-08T12:55:25;96868.35;;;17.33;75.94
60375;BME280;70244;48.792;9.172;2024-03-08T12:57:56;96859.92;;;17.39;76.24
60375;BME280;70244;48.792;9.172;2024-03-08T13:00:27;96860.10;;;17.37;75.90
60375;BME280;70244;48.792;9.172;2024-03-08T13:02:57;96856.74;;;17.48;75.13
60375;BME280;70244;48.792;9.172;2024-03-08T13:05:28;96853.83;;;17.62;74.51
60375;BME280;70244;48.792;9.172;2024-03-08T13:07:58;96847.53;;;17.56;74.56
60375;BME280;70244;48.792;9.172;2024-03-08T13:10:28;96842.67;;;17.62;74.31
60375;BME280;70244;48.792;9.172;2024-03-08T13:12:59;96836.34;;;17.69;73.97
60375;BME280;70244;48.792;9.172;2024-03-08T13:15:30;96832.04;;;17.71;73.75
60375;BME280;70244;48.792;9.172;2024-03-08T13:18:00;96829.16;;;17.71;74.07
60375;BME280;70244;48.792;9.172;2024-03-08T13:20:30;96827.15;;;17.75;73.77
60375;BME280;70244;48.792;9.172;2024-03-08T13:23:00;96825.90;;;17.81;73.50
60375;BME280;70244;48.792;9.172;2024-03-08T13:25:31;96818.59;;;17.88;73.11
60375;BME280;70244;48.792;9.172;2024-03-08T13:28:02;96818.12;;;18.06;72.59
60375;BME280;70244;48.792;9.172;2024-03-08T13:30:32;96811.04;;;17.91;73.20
60375;BME280;70244;48.792;9.172;2024-03-08T13:33:03;96809.46;;;17.90;73.23
60375;BME280;70244;48.792;9.172;2024-03-08T13:35:33;96806.61;;;17.92;73.23
60375;BME280;70244;48.792;9.172;2024-03-08T13:38:04;96805.82;;;17.98;72.99
60375;BME280;70244;48.792;9.172;2024-03-08T13:40:34;96796.03;;;18.02;72.88
60375;BME280;70244;48.792;9.172;2024-03-08T13:43:05;96788.18;;;18.04;72.66
60375;BME280;70244;48.792;9.172;2024-03-08T13:45:36;96783.10;;;18.06;72.48
60375;BME280;70244;48.792;9.172;2024-03-08T13:48:06;96780.61;;;18.11;72.32
60375;BME280;70244;48.792;9.172;2024-03-08T13:50:36;96777.65;;;18.17;72.10
60375;BME280;70244;48.792;9.172;2024-03-08T13:53:06;96779.83;;;18.14;72.13
60375;BME280;70244;48.792;9.172;2024-03-08T13:55:36;96775.49;;;18.14;72.05
60375;BME280;70244;48.792;9.172;2024-03-08T13:58:07;96774.76;;;18.14;71.97
60375;BME280;70244;48.792;9.172;2024-03-08T14:00:37;96771.54;;;18.15;72.02
60375;BME280;70244;48.792;9.172;2024-03-08T14:03:08;96768.36;;;18.23;71.78
60375;BME280;70244;48.792;9.172;2024-03-08T14:05:39;96763.58;;;18.33;71.37
60375;BME280;70244;48.792;9.172;2024-03-08T14:08:09;96760.67;;;18.29;71.41
60375;BME280;70244;48.792;9.172;2024-03-08T14:10:40;96756.21;;;18.33;71.27
60375;BME280;70244;48.792;9.172;2024-03-08T14:13:11;96748.56;;;18.38;71.05
60375;BME280;70244;48.792;9.172;2024-03-08T14:15:41;96745.04;;;18.37;71.04
60375;BME280;70244;48.792;9.172;2024-03-08T14:18:12;96738.01;;;18.33;71.11
60375;BME280;70244;48.792;9.172;2024-03-08T14:20:42;96733.19;;;18.35;71.10
60375;BME280;70244;48.792;9.172;2024-03-08T14:23:13;96732.22;;;18.42;70.92
60375;BME280;70244;48.792;9.172;2024-03-08T14:25:44;96732.49;;;18.45;70.74
60375;BME280;70244;48.792;9.172;2024-03-08T14:28:14;96730.40;;;18.57;70.33
60375;BME280;70244;48.792;9.172;2024-03-08T14:30:45;96728.54;;;18.48;70.51
60375;BME280;70244;48.792;9.172;2024-03-08T14:33:16;96729.73;;;18.51;70.32
60375;BME280;70244;48.792;9.172;2024-03-08T14:35:46;96727.65;;;18.56;70.32
60375;BME280;70244;48.792;9.172;2024-03-08T14:38:16;96721.02;;;18.50;70.37
60375;BME280;70244;48.792;9.172;2024-03-08T14:40:47;96721.49;;;18.52;70.34
60375;BME280;70244;48.792;9.172;2024-03-08T14:43:17;96719.64;;;18.60;70.17
60375;BME280;70244;48.792;9.172;2024-03-08T14:45:49;96719.76;;;18.62;70.19
60375;BME280;70244;48.792;9.172;2024-03-08T14:48:18;96714.64;;;18.73;70.04
60375;BME280;70244;48.792;9.172;2024-03-08T14:50:49;96708.78;;;18.71;70.32
60375;BME280;70244;48.792;9.172;2024-03-08T14:53:20;96701.21;;;18.65;70.63
60375;BME280;70244;48.792;9.172;2024-03-08T14:55:50;96693.68;;;18.66;70.59
60375;BME280;70244;48.792;9.172;2024-03-08T14:58:21;96689.79;;;18.69;70.44
60375;BME280;70244;48.792;9.172;2024-03-08T15:00:51;96687.47;;;19.01;63.82
60375;BME280;70244;48.792;9.172;2024-03-08T15:03:21;96684.74;;;18.43;61.82
60375;BME280;70244;48.792;9.172;2024-03-08T15:05:52;96679.83;;;19.95;52.71
60375;BME280;70244;48.792;9.172;2024-03-08T15:08:22;96681.34;;;19.23;61.59
60375;BME280;70244;48.792;9.172;2024-03-08T15:10:52;96679.86;;;18.26;63.49
60375;BME280;70244;48.792;9.172;2024-03-08T15:13:23;96674.30;;;18.19;63.71
60375;BME280;70244;48.792;9.172;2024-03-08T15:15:54;96666.50;;;18.34;64.06
60375;BME280;70244;48.792;9.172;2024-03-08T15:18:25;96657.92;;;18.46;65.85
60375;BME280;70244;48.792;9.172;2024-03-08T15:20:54;96654.00;;;18.56;65.81
60375;BME280;70244;48.792;9.172;2024-03-08T15:23:25;96646.76;;;18.74;65.97
60375;BME280;70244;48.792;9.172;2024-03-08T15:25:56;96642.94;;;18.78;66.30
60375;BME280;70244;48.792;9.172;2024-03-08T15:28:26;96642.26;;;18.77;66.59
60375;BME280;70244;48.792;9.172;2024-03-08T15:30:57;96643.18;;;18.81;66.74
60375;BME280;70244;48.792;9.172;2024-03-08T15:33:27;96640.32;;;18.85;66.91
60375;BME280;70244;48.792;9.172;2024-03-08T15:35:57;96635.53;;;18.96;66.80
60375;BME280;70244;48.792;9.172;2024-03-08T15:38:28;96632.83;;;18.96;67.02
60375;BME280;70244;48.792;9.172;2024-03-08T15:40:59;96633.46;;;18.94;67.17
60375;BME280;70244;48.792;9.172;2024-03-08T15:43:29;96629.90;;;19.04;66.97
60375;BME280;70244;48.792;9.172;2024-03-08T15:45:59;96625.72;;;18.99;67.15
60375;BME280;70244;48.792;9.172;2024-03-08T15:48:31;96620.66;;;18.94;67.49
60375;BME280;70244;48.792;9.172;2024-03-08T15:51:01;96616.41;;;19.07;67.32
60375;BME280;70244;48.792;9.172;2024-03-08T15:53:32;96607.58;;;19.09;67.32
60375;BME280;70244;48.792;9.172;2024-03-08T15:56:02;96602.60;;;19.03;67.55
60375;BME280;70244;48.792;9.172;2024-03-08T15:58:32;96599.69;;;19.07;67.41
60375;BME280;70244;48.792;9.172;2024-03-08T16:01:03;96600.47;;;19.06;67.50
60375;BME280;70244;48.792;9.172;2024-03-08T16:03:33;96600.78;;;19.17;67.11
60375;BME280;70244;48.792;9.172;2024-03-08T16:06:05;96598.65;;;19.07;67.26
60375;BME280;70244;48.792;9.172;2024-03-08T16:08:35;96596.30;;;19.03;67.49
60375;BME280;70244;48.792;9.172;2024-03-08T16:11:06;96596.23;;;19.05;67.41
60375;BME280;70244;48.792;9.172;2024-03-08T16:13:36;96597.03;;;19.21;66.94
60375;BME280;70244;48.792;9.172;2024-03-08T16:16:07;96591.34;;;19.07;67.27
60375;BME280;70244;48.792;9.172;2024-03-08T16:18:37;96586.12;;;18.98;67.69
60375;BME280;70244;48.792;9.172;2024-03-08T16:21:08;96584.73;;;19.03;67.54
60375;BME280;70244;48.792;9.172;2024-03-08T16:23:38;96579.60;;;18.84;68.00
60375;BME280;70244;48.792;9.172;2024-03-08T16:26:08;96578.75;;;18.94;67.85
60375;BME280;70244;48.792;9.172;2024-03-08T16:28:38;96576.19;;;18.97;67.33
60375;BME280;70244;48.792;9.172;2024-03-08T16:31:09;96575.96;;;19.13;66.64
60375;BME280;70244;48.792;9.172;2024-03-08T16:33:40;96575.51;;;19.18;65.54
60375;BME280;70244;48.792;9.172;2024-03-08T16:36:10;96580.25;;;19.08;65.58
60375;BME280;70244;48.792;9.172;2024-03-08T16:38:40;96575.28;;;19.47;63.34
60375;BME280;70244;48.792;9.172;2024-03-08T16:41:11;96570.80;;;19.55;62.12
60375;BME280;70244;48.792;9.172;2024-03-08T16:43:42;96573.09;;;19.48;61.85
60375;BME280;70244;48.792;9.172;2024-03-08T16:46:12;96571.39;;;19.71;60.47
60375;BME280;70244;48.792;9.172;2024-03-08T16:48:42;96571.91;;;19.29;60.37
60375;BME280;70244;48.792;9.172;2024-03-08T16:51:12;96569.97;;;18.90;61.87
60375;BME280;70244;48.792;9.172;2024-03-08T16:53:43;96567.26;;;18.84;62.10
60375;BME280;70244;48.792;9.172;2024-03-08T16:56:13;96564.95;;;18.90;62.25
60375;BME280;70244;48.792;9.172;2024-03-08T16:58:43;96565.81;;;18.67;63.26
60375;BME280;70244;48.792;9.172;2024-03-08T17:01:13;96564.96;;;18.60;63.68
60375;BME280;70244;48.792;9.172;2024-03-08T17:03:44;96560.00;;;18.74;63.68
60375;BME280;70244;48.792;9.172;2024-03-08T17:06:15;96558.57;;;18.67;64.15
60375;BME280;70244;48.792;9.172;2024-03-08T17:08:45;96548.77;;;18.66;64.52
60375;BME280;70244;48.792;9.172;2024-03-08T17:11:16;96547.45;;;18.71;64.62
60375;BME280;70244;48.792;9.172;2024-03-08T17:13:46;96544.37;;;18.72;64.78
60375;BME280;70244;48.792;9.172;2024-03-08T17:16:16;96545.53;;;18.73;64.78
60375;BME280;70244;48.792;9.172;2024-03-08T17:18:46;96548.29;;;18.67;65.10
60375;BME280;70244;48.792;9.172;2024-03-08T17:21:17;96549.46;;;18.64;65.25
60375;BME280;70244;48.792;9.172;2024-03-08T17:23:47;96552.34;;;18.73;68.02
60375;BME280;70244;48.792;9.172;2024-03-08T17:26:18;96554.90;;;18.62;68.50
60375;BME280;70244;48.792;9.172;2024-03-08T17:28:48;96556.43;;;18.59;68.46
60375;BME280;70244;48.792;9.172;2024-03-08T17:31:18;96555.09;;;18.52;68.37
60375;BME280;70244;48.792;9.172;2024-03-08T17:33:49;96551.42;;;18.52;68.15
60375;BME280;70244;48.792;9.172;2024-03-08T17:36:20;96548.46;;;18.82;70.28
60375;BME280;70244;48.792;9.172;2024-03-08T17:38:50;96546.25;;;18.63;70.18
60375;BME280;70244;48.792;9.172;2024-03-08T17:41:21;96546.87;;;18.53;70.77
60375;BME280;70244;48.792;9.172;2024-03-08T17:43:51;96547.41;;;18.84;70.63
60375;BME280;70244;48.792;9.172;2024-03-08T17:46:21;96548.47;;;18.95;71.13
60375;BME280;70244;48.792;9.172;2024-03-08T17:48:52;96546.37;;;19.09;69.69
60375;BME280;70244;48.792;9.172;2024-03-08T17:51:23;96543.00;;;19.22;69.14
60375;BME280;70244;48.792;9.172;2024-03-08T17:53:53;96543.02;;;19.60;68.12
60375;BME280;70244;48.792;9.172;2024-03-08T17:56:24;96537.19;;;19.12;71.27
60375;BME280;70244;48.792;9.172;2024-03-08T17:58:55;96539.70;;;19.19;70.91
60375;BME280;70244;48.792;9.172;2024-03-08T18:01:26;96536.79;;;19.24;71.00
60375;BME280;70244;48.792;9.172;2024-03-08T18:03:56;96535.06;;;19.08;70.17
60375;BME280;70244;48.792;9.172;2024-03-08T18:06:27;96532.60;;;19.33;67.91
60375;BME280;70244;48.792;9.172;2024-03-08T18:08:58;96536.21;;;19.64;67.83
60375;BME280;70244;48.792;9.172;2024-03-08T18:11:28;96530.87;;;19.67;65.84
60375;BME280;70244;48.792;9.172;2024-03-08T18:13:58;96523.46;;;19.58;66.41
60375;BME280;70244;48.792;9.172;2024-03-08T18:16:29;96520.18;;;20.01;65.87
60375;BME280;70244;48.792;9.172;2024-03-08T18:18:59;96513.06;;;20.06;64.61
60375;BME280;70244;48.792;9.172;2024-03-08T18:21:29;96505.77;;;19.86;64.82
60375;BME280;70244;48.792;9.172;2024-03-08T18:23:59;96503.15;;;19.94;64.93
60375;BME280;70244;48.792;9.172;2024-03-08T18:26:30;96506.85;;;20.07;64.71
60375;BME280;70244;48.792;9.172;2024-03-08T18:29:01;96507.29;;;19.89;64.94
60375;BME280;70244;48.792;9.172;2024-03-08T18:31:31;96500.80;;;19.81;64.73
60375;BME280;70244;48.792;9.172;2024-03-08T18:34:01;96505.88;;;19.93;64.63